createdAt,value
2018-11-14T00:01:09.415Z,6
2018-11-14T00:06:11.864Z,5
2018-11-14T00:11:14.287Z,8
2018-11-14T00:16:16.729Z,5
2018-11-14T00:21:19.180Z,6
2018-11-14T00:26:21.597Z,7
2018-11-14T00:31:24.056Z,6
2018-11-14T00:36:26.545Z,7
2018-11-14T00:41:28.924Z,6
2018-11-14T00:46:31.360Z,8
2018-11-14T00:51:33.816Z,6
2018-11-14T00:56:36.252Z,8
2018-11-14T01:01:38.786Z,7
2018-11-14T01:06:41.130Z,7
2018-11-14T01:11:43.617Z,7
2018-11-14T01:16:46.003Z,5
2018-11-14T01:21:48.492Z,5
2018-11-14T01:26:50.882Z,5
2018-11-14T01:31:53.313Z,8
2018-11-14T01:36:55.774Z,5
2018-11-14T01:41:58.236Z,9
2018-11-14T01:47:00.642Z,5
2018-11-14T01:52:03.091Z,7
2018-11-14T01:57:05.519Z,5
2018-11-14T02:02:07.970Z,8
2018-11-14T02:07:10.434Z,7
2018-11-14T02:12:12.854Z,5
2018-11-14T02:17:15.315Z,9
2018-11-14T02:22:17.733Z,8
2018-11-14T02:27:20.171Z,7
2018-11-14T02:32:22.616Z,5
2018-11-14T02:37:25.117Z,6
2018-11-14T02:42:27.478Z,11
2018-11-14T02:47:29.940Z,6
2018-11-14T02:52:32.388Z,9
2018-11-14T02:57:34.817Z,9
2018-11-14T03:02:37.272Z,6
2018-11-14T03:07:39.741Z,7
2018-11-14T03:12:42.203Z,6
2018-11-14T03:17:44.606Z,6
2018-11-14T03:22:47.053Z,7
2018-11-14T03:27:49.510Z,5
2018-11-14T03:32:51.933Z,5
2018-11-14T03:37:54.331Z,6
2018-11-14T03:42:56.761Z,9
2018-11-14T03:47:59.213Z,8
2018-11-14T03:53:01.644Z,7
2018-11-14T03:58:04.117Z,8
2018-11-14T04:03:06.553Z,8
2018-11-14T04:08:08.985Z,5
2018-11-14T04:13:11.479Z,9
2018-11-14T04:18:13.858Z,7
2018-11-14T04:23:16.287Z,6
2018-11-14T04:28:18.765Z,6
2018-11-14T04:33:21.165Z,5
2018-11-14T04:38:23.612Z,5
2018-11-14T04:43:26.073Z,6
2018-11-14T04:48:28.492Z,8
2018-11-14T04:53:30.949Z,10
2018-11-14T04:58:33.365Z,10
2018-11-14T05:03:35.829Z,9
2018-11-14T05:08:38.257Z,12
2018-11-14T05:13:40.721Z,7
2018-11-14T05:18:43.136Z,7
2018-11-14T05:23:45.581Z,7
2018-11-14T05:28:48.015Z,7
2018-11-14T05:33:50.451Z,11
2018-11-14T05:38:53.039Z,10
2018-11-14T05:43:55.322Z,9
2018-11-14T05:48:57.773Z,9
2018-11-14T05:54:00.240Z,10
2018-11-14T05:59:02.897Z,9
2018-11-14T06:04:05.089Z,7
2018-11-14T06:09:07.543Z,13
2018-11-14T06:14:09.985Z,16
2018-11-14T06:19:12.421Z,12
2018-11-14T06:24:14.867Z,8
2018-11-14T06:29:17.311Z,10
2018-11-14T06:34:19.768Z,8
2018-11-14T06:39:22.210Z,9
2018-11-14T06:44:24.659Z,10
2018-11-14T06:49:27.205Z,10
2018-11-14T06:54:29.548Z,7
2018-11-14T06:59:32.107Z,7
2018-11-14T07:04:34.448Z,15
2018-11-14T07:09:36.904Z,18
2018-11-14T07:14:39.332Z,33
2018-11-14T07:19:41.835Z,25
2018-11-14T07:24:44.382Z,17
2018-11-14T07:29:46.676Z,17
2018-11-14T07:34:49.132Z,17
2018-11-14T07:39:51.579Z,29
2018-11-14T07:44:54.001Z,10
2018-11-14T07:49:56.513Z,13
2018-11-14T07:54:59.260Z,14
2018-11-14T08:00:01.367Z,12
2018-11-14T08:05:03.784Z,10
2018-11-14T08:10:06.253Z,15
2018-11-14T08:15:08.687Z,11
2018-11-14T08:20:11.109Z,8
2018-11-14T08:25:13.769Z,10
2018-11-14T08:30:16.017Z,5
2018-11-14T08:35:18.431Z,11
2018-11-14T08:40:20.869Z,11
2018-11-14T08:45:23.309Z,6
2018-11-14T08:50:25.792Z,8
2018-11-14T08:55:28.336Z,7
2018-11-14T09:00:30.634Z,8
2018-11-14T09:05:33.067Z,8
2018-11-14T09:10:35.541Z,8
2018-11-14T09:15:37.953Z,6
2018-11-14T09:20:40.491Z,7
2018-11-14T09:25:42.827Z,10
2018-11-14T09:30:45.330Z,8
2018-11-14T09:35:47.710Z,5
2018-11-14T09:40:50.326Z,5
2018-11-14T09:45:52.589Z,11
2018-11-14T09:50:55.075Z,6
2018-11-14T09:55:57.486Z,5
2018-11-14T10:01:00.167Z,9
2018-11-14T10:06:02.421Z,12
2018-11-14T10:11:04.802Z,5
2018-11-14T10:16:07.249Z,5
2018-11-14T10:21:09.733Z,5
2018-11-14T10:26:12.199Z,6
2018-11-14T10:31:14.544Z,11
2018-11-14T10:36:16.989Z,7
2018-11-14T10:41:19.446Z,6
2018-11-14T10:46:21.878Z,9
2018-11-14T10:51:24.315Z,9
2018-11-14T10:56:26.768Z,6
2018-11-14T11:01:29.205Z,4
2018-11-14T11:06:31.631Z,6
2018-11-14T11:11:34.093Z,9
2018-11-14T11:16:36.624Z,5
2018-11-14T11:21:38.949Z,5
2018-11-14T11:26:41.414Z,6
2018-11-14T11:31:43.920Z,7
2018-11-14T11:36:46.369Z,7
2018-11-14T11:41:48.732Z,4
2018-11-14T11:46:51.187Z,5
2018-11-14T11:51:53.605Z,4
2018-11-14T11:56:56.034Z,4
2018-11-14T12:01:58.521Z,10
2018-11-14T12:07:00.926Z,4
2018-11-14T12:12:03.418Z,4
2018-11-14T12:17:05.838Z,5
2018-11-14T12:22:08.250Z,10
2018-11-14T12:27:10.754Z,5
2018-11-14T12:32:13.130Z,5
2018-11-14T12:37:15.629Z,4
2018-11-14T12:42:18.013Z,4
2018-11-14T12:47:20.445Z,7
2018-11-14T12:52:22.912Z,5
2018-11-14T13:02:27.795Z,3
2018-11-14T13:07:30.234Z,4
2018-11-14T13:12:32.663Z,5
2018-11-14T13:17:35.175Z,5
2018-11-14T13:22:37.545Z,4
2018-11-14T13:27:40.005Z,5
2018-11-14T13:32:42.488Z,4
2018-11-14T13:37:44.869Z,5
2018-11-14T13:42:47.307Z,4
2018-11-14T13:47:49.766Z,3
2018-11-14T13:52:52.196Z,4
2018-11-14T13:57:54.630Z,5
2018-11-14T14:02:57.131Z,3
2018-11-14T14:07:59.589Z,4
2018-11-14T14:13:01.955Z,4
2018-11-14T14:18:04.451Z,3
2018-11-14T14:23:06.848Z,4
2018-11-14T14:28:09.342Z,2
2018-11-14T14:33:11.977Z,6
2018-11-14T14:38:14.231Z,5
2018-11-14T14:43:16.589Z,6
2018-11-14T14:48:19.049Z,3
2018-11-14T14:53:21.473Z,5
2018-11-14T14:58:23.915Z,9
2018-11-14T15:03:26.387Z,3
2018-11-14T15:08:28.809Z,2
2018-11-14T15:13:31.234Z,2
2018-11-14T15:18:33.683Z,5
2018-11-14T15:23:36.126Z,5
2018-11-14T15:28:38.615Z,4
2018-11-14T15:33:41.002Z,6
2018-11-14T15:38:43.490Z,5
2018-11-14T15:43:45.894Z,5
2018-11-14T15:48:48.348Z,5
2018-11-14T15:53:50.770Z,29
2018-11-14T15:58:53.202Z,34
2018-11-14T16:03:55.645Z,12
2018-11-14T16:08:58.091Z,4
2018-11-14T16:14:00.518Z,6
2018-11-14T16:19:02.982Z,6
2018-11-14T16:24:05.477Z,4
2018-11-14T16:29:07.843Z,8
2018-11-14T16:34:10.299Z,9
2018-11-14T16:39:12.725Z,8
2018-11-14T16:44:15.198Z,5
2018-11-14T16:49:17.657Z,5
2018-11-14T16:54:20.063Z,7
2018-11-14T16:59:22.509Z,9
2018-11-14T17:04:24.977Z,7
2018-11-14T17:09:27.400Z,8
2018-11-14T17:14:29.944Z,7
2018-11-14T17:19:32.310Z,11
2018-11-14T17:24:34.865Z,8
2018-11-14T17:29:37.195Z,26
2018-11-14T17:34:39.669Z,64
2018-11-14T17:44:44.506Z,42
